Data for 02/17/2014

Time Sea-Level Adjusted Pressure Absolute Pressure Temperature Relative Humidity Dew Point   
(mb) (inHg) (mb) (inHg) (C) (F) (%) (C) (F)
00:05 1016 30 846 24.98 -1.2 29.9 39 -13.4 7.8
00:10 1016 30 846 24.98 -1.3 29.7 38 -13.9 6.9
00:15 1017 30.03 846 24.98 -1 30.2 38 -13.7 7.3
00:20 1017 30.03 846 24.98 -1.1 30.1 38 -13.8 7.1
00:25 1017 30.03 846 24.98 -1.1 30 38 -13.6 7.5
00:30 1017 30.03 846 24.98 -1.2 29.9 38 -13.7 7.3
00:35 1017 30.03 846 24.98 -1.2 29.8 38 -13.8 7.2
00:40 1017 30.03 846 24.98 -1.1 30.1 36 -14.4 6.1
00:45 1017 30.03 846 24.98 -1 30.1 38 -13.6 7.5
00:50 1017 30.03 846 24.98 -1.3 29.7 38 -14 6.9
00:55 1017 30.03 846 24.98 -1.4 29.5 39 -13.7 7.4
01:00 1017 30.03 846 24.98 -1.6 29.2 39 -13.7 7.3
01:05 1017 30.03 846 24.98 -1.8 28.8 40 -13.6 7.6
01:10 1017 30.03 846 24.98 -2 28.4 41 -13.5 7.7
01:15 1017 30.03 846 24.98 -2.2 28 41 -13.7 7.3
01:20 1017 30.03 846 24.98 -2.4 27.8 40 -14.1 6.6
01:25 1017 30.03 847 25.01 -2.3 27.8 42 -13.7 7.3
01:30 1017 30.03 846 24.98 -2.7 27.1 42 -13.8 7.1
01:35 1017 30.03 846 24.98 -2.8 27 42 -14 6.8
01:40 1017 30.03 846 24.98 -3.1 26.5 44 -13.8 7.2
01:45 1017 30.03 846 24.98 -3.6 25.6 45 -14 6.8
01:50 1017 30.03 846 24.98 -3.6 25.5 42 -14.7 5.6
01:55 1017 30.03 846 24.98 -2.9 26.8 39 -15.1 4.9
02:00 1017 30.03 846 24.98 -2.3 27.9 36 -15.5 4.1
02:05 1017 30.03 846 24.98 -2 28.4 36 -15.2 4.6
02:10 1016 30 846 24.98 -2.1 28.2 36 -15.2 4.7
02:15 1016 30 845 24.95 -2.2 28 37 -15.1 4.8
02:20 1016 30 845 24.95 -2.1 28.1 34 -15.9 3.4
02:25 1016 30 845 24.95 -1.9 28.6 33 -16.2 2.9
02:30 1016 30 845 24.95 -1.7 28.9 32 -16.4 2.5
02:35 1016 30 845 24.95 -1.5 29.3 30 -17.1 1.3
02:40 1016 30 845 24.95 -1.2 29.9 30 -16.5 2.3
02:45 1016 30 845 24.95 -1.2 29.9 30 -16.6 2.1
02:50 1016 30 845 24.95 -1.1 29.9 29 -16.9 1.5
02:55 1015 29.97 845 24.95 -0.9 30.3 28 -17.3 0.8
03:00 1015 29.97 845 24.95 -0.6 31 29 -16.6 2.2
03:05 1015 29.97 844 24.92 -0.8 30.6 29 -16.6 2
03:10 1015 29.97 844 24.92 -0.8 30.5 30 -16.5 2.4
03:15 1015 29.97 844 24.92 -0.4 31.3 29 -16.5 2.3
03:20 1015 29.97 844 24.92 -0.2 31.7 29 -16.2 2.9
03:25 1015 29.97 844 24.92 0.1 32.2 28 -16.4 2.5
03:30 1015 29.97 844 24.92 0.6 33 28 -16 3.2
03:35 1015 29.97 844 24.92 0.4 32.6 30 -15.5 4.1
03:40 1015 29.97 844 24.92 0.3 32.5 29 -15.8 3.5
03:45 1015 29.97 844 24.92 0.3 32.6 29 -15.8 3.6
03:50 1015 29.97 844 24.92 0.2 32.3 31 -15.1 4.9
03:55 1015 29.97 844 24.92 0 32.1 30 -15.5 4.2
04:00 1015 29.97 844 24.92 -0 31.9 30 -15.6 4
04:05 1015 29.97 844 24.92 0.2 32.3 31 -15.2 4.6
04:10 1015 29.97 844 24.92 0.1 32.2 30 -15.4 4.3
04:15 1015 29.97 844 24.92 0.4 32.8 29 -15.6 3.9
04:20 1015 29.97 844 24.92 0.7 33.3 29 -15.3 4.5
04:25 1015 29.97 844 24.92 0.7 33.2 29 -15.4 4.2
04:30 1015 29.97 844 24.92 0.7 33.3 28 -15.8 3.6
04:35 1014 29.94 844 24.92 0.8 33.4 28 -15.8 3.6
04:40 1014 29.94 844 24.92 0.7 33.2 29 -15.5 4
04:45 1014 29.94 844 24.92 0.7 33.2 29 -15.4 4.2
04:50 1014 29.94 844 24.92 0.6 33.1 29 -15.5 4
04:55 1014 29.94 844 24.92 0.9 33.7 28 -15.9 3.4
05:00 1014 29.94 844 24.92 1.2 34.1 27 -15.8 3.6
05:05 1014 29.94 843 24.89 1.2 34.1 28 -15.6 3.8
05:10 1014 29.94 843 24.89 1.3 34.3 27 -15.6 3.9
05:15 1014 29.94 843 24.89 1.6 34.8 28 -15.3 4.5
05:20 1014 29.94 843 24.89 1.5 34.7 28 -15 5
05:25 1014 29.94 844 24.92 1.3 34.3 29 -14.8 5.4
05:30 1014 29.94 843 24.89 1.1 33.9 32 -14 6.8
05:35 1014 29.94 843 24.89 0.7 33.2 31 -14.5 5.9
05:40 1014 29.94 843 24.89 0.6 33 31 -14.6 5.8
05:45 1014 29.94 843 24.89 0.7 33.3 29 -15.4 4.3
05:50 1014 29.94 843 24.89 1 33.8 29 -15.1 4.9
05:55 1014 29.94 843 24.89 1 33.8 29 -15.1 4.8
06:00 1014 29.94 843 24.89 0.9 33.6 30 -14.7 5.6
06:05 1014 29.94 843 24.89 0.8 33.4 32 -14.2 6.5
06:10 1013 29.91 843 24.89 0.7 33.3 32 -14.3 6.3
06:15 1013 29.91 843 24.89 0.7 33.2 31 -14.5 6
06:20 1013 29.91 843 24.89 0.4 32.6 32 -14.4 6.1
06:25 1013 29.91 842 24.86 0.4 32.7 32 -14.5 5.9
06:30 1013 29.91 842 24.86 0.5 32.8 32 -14.6 5.7
06:35 1013 29.91 842 24.86 0.6 33 31 -14.9 5.1
06:40 1013 29.91 842 24.86 0.6 33.2 31 -14.5 5.9
06:45 1013 29.91 842 24.86 0.4 32.8 35 -13.4 7.8
06:50 1013 29.91 842 24.86 -0.3 31.5 36 -13.6 7.5
06:55 1013 29.91 842 24.86 -0.9 30.4 37 -13.8 7.2
07:00 1013 29.91 842 24.86 -0.8 30.5 39 -13.3 8.1
07:05 1013 29.91 842 24.86 -1.1 30 41 -12.8 8.9
07:10 1013 29.91 842 24.86 -1.4 29.6 42 -12.8 9
07:15 1013 29.91 842 24.86 -1.4 29.5 42 -12.6 9.4
07:20 1013 29.91 842 24.86 -1.5 29.3 43 -12.5 9.5
07:25 1013 29.91 842 24.86 -1.4 29.5 43 -12.4 9.7
07:30 1012 29.88 842 24.86 -1.5 29.4 44 -12.3 9.9
07:35 1012 29.88 842 24.86 -1.5 29.3 45 -12 10.4
07:40 1012 29.88 842 24.86 -1.6 29.1 45 -12.2 10.1
07:45 1012 29.88 841 24.83 -1.6 29.2 44 -12.2 10
07:50 1012 29.88 841 24.83 -1.5 29.2 46 -11.8 10.7
07:55 1012 29.88 841 24.83 -1.6 29 46 -11.8 10.8
08:00 1012 29.88 841 24.83 -1.6 29.1 45 -12.1 10.2
08:05 1012 29.88 841 24.83 -1.5 29.3 45 -12.1 10.3
08:10 1012 29.88 841 24.83 -1.4 29.5 44 -12.2 10.1
08:15 1012 29.88 841 24.83 -1.3 29.6 43 -12.4 9.8
08:20 1012 29.88 841 24.83 -1.3 29.7 42 -12.5 9.4
08:25 1012 29.88 841 24.83 -1.2 29.9 42 -12.6 9.4
08:30 1012 29.88 841 24.83 -1.1 30.1 41 -12.6 9.3
08:35 1012 29.88 841 24.83 -1.2 29.9 43 -12.2 10
08:40 1012 29.88 841 24.83 -1.3 29.6 43 -12.3 9.9
08:45 1012 29.88 841 24.83 -1.3 29.6 41 -12.8 8.9
08:50 1012 29.88 841 24.83 -1.1 30 41 -12.7 9.2
08:55 1012 29.88 841 24.83 -1.2 29.9 42 -12.7 9.2
09:00 1012 29.88 841 24.83 -1.2 29.8 42 -12.6 9.4
09:05 1011 29.85 841 24.83 -1.2 29.9 40 -13 8.6
09:10 1011 29.85 841 24.83 -1 30.2 40 -13 8.6
09:15 1011 29.85 841 24.83 -0.9 30.3 41 -12.7 9.2
09:20 1011 29.85 841 24.83 -1.2 29.9 42 -12.5 9.5
09:25 1011 29.85 841 24.83 -1.2 29.8 42 -12.4 9.6
09:30 1011 29.85 840 24.81 -1.2 29.8 41 -12.7 9.1
09:35 1011 29.85 841 24.83 -1.1 30 42 -12.6 9.4
09:40 1011 29.85 841 24.83 -1.2 29.9 42 -12.5 9.5
09:45 1011 29.85 841 24.83 -1.1 30 41 -12.6 9.3
09:50 1011 29.85 840 24.81 -0.9 30.3 42 -12.4 9.6
09:55 1011 29.85 840 24.81 -0.8 30.5 42 -12.3 9.8
10:00 1011 29.85 840 24.81 -0.8 30.5 41 -12.4 9.6
10:05 1011 29.85 840 24.81 -0.7 30.7 41 -12.4 9.6
10:10 1011 29.85 840 24.81 -0.6 31 40 -12.5 9.5
10:15 1011 29.85 840 24.81 -0.5 31.1 40 -12.4 9.6
10:20 1011 29.85 840 24.81 -0.5 31.1 41 -12.2 10
10:25 1011 29.85 840 24.81 -0.3 31.4 41 -12.2 10.1
10:30 1011 29.85 840 24.81 -0.2 31.6 40 -12.2 10.1
10:35 1011 29.85 840 24.81 -0 31.9 39 -12.3 9.8
10:40 1011 29.85 840 24.81 0.1 32.2 38 -12.5 9.5
10:45 1011 29.85 840 24.81 0.3 32.5 38 -12.5 9.4
10:50 1011 29.85 840 24.81 0.5 32.8 36 -12.8 9
10:55 1011 29.85 840 24.81 0.7 33.2 37 -12.4 9.6
11:00 1011 29.85 840 24.81 1.2 34.2 37 -12 10.3
11:05 1011 29.85 840 24.81 0.9 33.7 38 -11.9 10.6
11:10 1011 29.85 840 24.81 1.5 34.7 36 -12 10.4
11:15 1011 29.85 840 24.81 1.5 34.7 37 -11.7 10.9
11:20 1011 29.85 840 24.81 1.2 34.1 39 -11.5 11.4
11:25 1011 29.85 840 24.81 1.5 34.6 37 -11.6 11.2
11:30 1010 29.83 840 24.81 2 35.6 34 -12.3 9.9
11:35 1010 29.83 839 24.78 1.9 35.4 36 -11.7 10.9
11:40 1010 29.83 839 24.78 1.9 35.5 35 -12.1 10.2
11:45 1010 29.83 839 24.78 2.4 36.3 35 -11.6 11.1
11:50 1010 29.83 839 24.78 2.7 36.9 35 -11.4 11.5
11:55 1010 29.83 839 24.78 3 37.4 31 -12.4 9.7
12:00 1010 29.83 839 24.78 3.2 37.8 31 -12.3 9.8
12:05 1010 29.83 839 24.78 2.9 37.3 33 -11.9 10.7
12:10 1010 29.83 839 24.78 2.8 37.1 32 -12.2 10
12:15 1010 29.83 839 24.78 2.6 36.7 33 -12.2 10
12:20 1010 29.83 839 24.78 2.9 37.1 33 -11.9 10.5
12:25 1010 29.83 839 24.78 3.1 37.5 32 -12 10.3
12:30 1010 29.83 839 24.78 3.7 38.7 32 -11.4 11.4
12:35 1010 29.83 839 24.78 3.7 38.6 29 -12.9 8.8
12:40 1009 29.8 839 24.78 4.7 40.5 30 -11.5 11.2
12:45 1009 29.8 839 24.78 5.6 42.1 29 -11.2 11.9
12:50 1009 29.8 838 24.75 5.7 42.3 27 -11.7 10.9
12:55 1009 29.8 838 24.75 6.1 43 28 -11.3 11.7
13:00 1009 29.8 838 24.75 6.3 43.3 28 -11 12.2
13:05 1009 29.8 838 24.75 6.3 43.4 28 -10.8 12.6
13:10 1008 29.77 838 24.75 6.2 43.2 27 -11.2 11.8
13:15 1008 29.77 838 24.75 6.4 43.6 28 -10.8 12.5
13:20 1008 29.77 837 24.72 6.5 43.7 26 -11.6 11.1
13:25 1008 29.77 837 24.72 6.4 43.5 27 -11.5 11.3
13:30 1008 29.77 837 24.72 6.6 43.9 27 -11.3 11.7
13:35 1008 29.77 837 24.72 6.6 43.9 26 -11.6 11.2
13:40 1008 29.77 837 24.72 6.7 44 28 -10.8 12.6
13:45 1008 29.77 837 24.72 6.8 44.2 27 -11.1 12
13:50 1008 29.77 837 24.72 7 44.6 26 -11.5 11.4
13:55 1008 29.77 837 24.72 6.9 44.5 26 -11.3 11.7
14:00 1008 29.77 837 24.72 7 44.5 26 -11.3 11.7
14:05 1007 29.74 837 24.72 6.8 44.2 27 -10.9 12.4
14:10 1007 29.74 837 24.72 6.8 44.2 27 -11.1 12.1
14:15 1007 29.74 837 24.72 6.8 44.3 26 -11.3 11.6
14:20 1007 29.74 837 24.72 6.9 44.5 27 -11 12.2
14:25 1007 29.74 836 24.69 7 44.5 26 -11.2 11.9
14:30 1007 29.74 836 24.69 7 44.7 25 -11.5 11.4
14:35 1007 29.74 836 24.69 7.2 45 27 -10.8 12.6
14:40 1007 29.74 836 24.69 7.1 44.8 27 -10.8 12.5
14:45 1007 29.74 836 24.69 7.1 44.8 26 -11.2 11.8
14:50 1007 29.74 836 24.69 7.2 44.9 25 -11.5 11.3
14:55 1007 29.74 836 24.69 7.3 45.1 25 -11.3 11.7
15:00 1007 29.74 836 24.69 7.3 45.1 25 -11.7 11
15:05 1007 29.74 836 24.69 7.3 45.2 26 -10.8 12.5
15:10 1007 29.74 836 24.69 7.5 45.4 25 -11.4 11.5
15:15 1007 29.74 836 24.69 7.4 45.4 26 -11.1 12
15:20 1006 29.71 836 24.69 7.4 45.2 26 -10.9 12.4
15:25 1006 29.71 836 24.69 7.5 45.4 26 -10.9 12.3
15:30 1006 29.71 836 24.69 7.5 45.4 26 -11 12.1
15:35 1006 29.71 835 24.66 7.5 45.4 25 -11.3 11.6
15:40 1006 29.71 835 24.66 7.5 45.6 25 -11.1 12.1
15:45 1006 29.71 835 24.66 7.5 45.6 26 -10.9 12.4
15:50 1006 29.71 835 24.66 7.6 45.7 25 -11.5 11.4
15:55 1006 29.71 835 24.66 7.7 45.9 24 -11.6 11.1
16:00 1006 29.71 835 24.66 7.7 45.9 24 -11.6 11.1
16:05 1006 29.71 835 24.66 7.7 45.8 24 -11.7 10.9
16:10 1006 29.71 835 24.66 7.8 46 24 -11.5 11.3
16:15 1006 29.71 835 24.66 7.7 45.8 24 -11.5 11.4
16:20 1006 29.71 835 24.66 7.7 45.8 23 -12 10.4
16:25 1006 29.71 835 24.66 7.7 45.9 24 -11.6 11.2
16:30 1006 29.71 835 24.66 7.6 45.7 25 -11.4 11.6
16:35 1006 29.71 835 24.66 7.7 45.8 23 -12.3 9.8
16:40 1006 29.71 835 24.66 7.6 45.7 24 -11.9 10.6
16:45 1006 29.71 835 24.66 7.4 45.3 25 -11.5 11.2
16:50 1006 29.71 836 24.69 7.3 45.2 26 -10.8 12.5
16:55 1006 29.71 836 24.69 7.3 45.2 25 -11.5 11.3
17:00 1006 29.71 836 24.69 7.6 45.7 25 -11.4 11.5
17:05 1006 29.71 836 24.69 7.6 45.8 25 -11.3 11.7
17:10 1006 29.71 836 24.69 7.6 45.7 25 -11.1 12.1
17:15 1006 29.71 836 24.69 7.5 45.6 26 -11 12.3
17:20 1006 29.71 836 24.69 7.5 45.5 26 -10.7 12.7
17:25 1006 29.71 836 24.69 7.5 45.4 25 -11.3 11.6
17:30 1006 29.71 835 24.66 7.4 45.4 25 -11.3 11.7
17:35 1006 29.71 835 24.66 7.3 45.1 26 -11.2 11.9
17:40 1006 29.71 835 24.66 7.2 44.9 26 -10.9 12.3
17:45 1006 29.71 835 24.66 7.1 44.8 27 -10.8 12.6
17:50 1006 29.71 835 24.66 7.1 44.8 26 -11.2 11.8
17:55 1006 29.71 835 24.66 7.2 44.9 26 -10.9 12.4
18:00 1006 29.71 835 24.66 7.1 44.7 27 -10.6 12.8
18:05 1006 29.71 835 24.66 7 44.6 26 -11.3 11.7
18:10 1006 29.71 835 24.66 7 44.6 27 -10.7 12.7
18:15 1006 29.71 835 24.66 6.9 44.4 27 -10.8 12.6
18:20 1006 29.71 835 24.66 6.7 44 29 -10 13.9
18:25 1006 29.71 835 24.66 6.4 43.5 29 -10.5 13.1
18:30 1006 29.71 835 24.66 6.1 42.9 29 -10.6 12.9
18:35 1006 29.71 835 24.66 5.9 42.7 30 -10.5 13.2
18:40 1006 29.71 835 24.66 5.8 42.5 30 -10.6 12.9
18:45 1006 29.71 835 24.66 5.7 42.3 31 -10.2 13.7
18:50 1006 29.71 835 24.66 5.5 42 31 -10.3 13.5
18:55 1006 29.71 835 24.66 5.4 41.8 31 -10.3 13.4
19:00 1006 29.71 835 24.66 5.4 41.7 30 -11 12.1
19:05 1006 29.71 835 24.66 5.6 42.1 30 -10.8 12.5
19:10 1006 29.71 835 24.66 5.5 41.9 30 -10.6 12.9
19:15 1006 29.71 835 24.66 5.4 41.7 30 -11 12.2
19:20 1006 29.71 835 24.66 5.4 41.8 30 -10.6 12.9
19:25 1006 29.71 835 24.66 5.4 41.8 31 -10.3 13.4
19:30 1006 29.71 835 24.66 5.3 41.5 31 -10.7 12.7
19:35 1006 29.71 835 24.66 5.3 41.6 31 -10.3 13.5
19:40 1006 29.71 835 24.66 5.2 41.3 31 -10.6 12.9
19:45 1006 29.71 835 24.66 5.2 41.3 31 -10.8 12.6
19:50 1006 29.71 835 24.66 5.1 41.2 31 -10.5 13.1
19:55 1006 29.71 835 24.66 5.3 41.5 30 -10.8 12.5
20:00 1006 29.71 835 24.66 5.4 41.7 31 -10.5 13
20:05 1006 29.71 835 24.66 5.2 41.4 31 -10.5 13.1
20:10 1006 29.71 835 24.66 5.2 41.3 31 -10.7 12.7
20:15 1006 29.71 835 24.66 5.3 41.5 31 -10.6 13
20:20 1006 29.71 835 24.66 5.3 41.5 30 -10.8 12.5
20:25 1006 29.71 835 24.66 5.3 41.5 31 -10.4 13.2
20:30 1006 29.71 835 24.66 5.2 41.3 31 -10.6 12.9
20:35 1006 29.71 835 24.66 5.3 41.5 31 -10.7 12.7
20:40 1006 29.71 835 24.66 5.3 41.6 31 -10.3 13.4
20:45 1006 29.71 835 24.66 5.1 41.2 32 -10.4 13.2
20:50 1006 29.71 835 24.66 5 41.1 33 -10.1 13.8
20:55 1006 29.71 835 24.66 4.9 40.8 33 -10.2 13.6
21:00 1006 29.71 835 24.66 4.9 40.8 33 -10.2 13.6
21:05 1006 29.71 835 24.66 4.9 40.7 33 -10.3 13.5
21:10 1006 29.71 835 24.66 4.8 40.6 34 -9.8 14.3
21:15 1006 29.71 835 24.66 4.8 40.6 32 -10.5 13
21:20 1006 29.71 835 24.66 5 41 31 -10.7 12.8
21:25 1005 29.68 835 24.66 5.1 41.1 32 -10.3 13.4
21:30 1005 29.68 834 24.63 5.1 41.1 32 -10.2 13.6
21:35 1005 29.68 834 24.63 5.1 41.2 31 -10.5 13
21:40 1005 29.68 834 24.63 5 41.1 33 -10 14.1
21:45 1005 29.68 834 24.63 4.9 40.8 31 -10.7 12.7
21:50 1005 29.68 834 24.63 5 40.9 34 -9.7 14.6
21:55 1005 29.68 834 24.63 4.8 40.6 34 -9.8 14.4
22:00 1005 29.68 834 24.63 4.7 40.4 36 -9.2 15.5
22:05 1005 29.68 834 24.63 4.5 40.1 35 -9.7 14.6
22:10 1005 29.68 835 24.66 4.5 40.1 35 -9.7 14.6
22:15 1006 29.71 835 24.66 4.5 40.2 35 -9.5 14.8
22:20 1006 29.71 835 24.66 4.6 40.3 34 -9.8 14.4
22:25 1006 29.71 835 24.66 4.7 40.4 34 -9.8 14.4
22:30 1006 29.71 835 24.66 4.7 40.4 35 -9.5 14.9
22:35 1006 29.71 835 24.66 4.5 40.1 36 -9.2 15.4
22:40 1006 29.71 835 24.66 4.4 39.8 36 -9.4 15.1
22:45 1006 29.71 835 24.66 4.3 39.8 36 -9.4 15.1
22:50 1006 29.71 835 24.66 4.3 39.8 37 -9.1 15.6
22:55 1006 29.71 835 24.66 4.3 39.7 37 -9.2 15.4
23:00 1006 29.71 835 24.66 4.3 39.7 36 -9.4 15.1
23:05 1006 29.71 835 24.66 4.4 40 35 -9.7 14.5
23:10 1006 29.71 835 24.66 4.5 40.1 36 -9.4 15.1
23:15 1006 29.71 835 24.66 4.5 40.1 36 -9.3 15.3
23:20 1006 29.71 835 24.66 4.4 39.9 36 -9.4 15.1
23:25 1006 29.71 835 24.66 4.4 40 36 -9.5 15
23:30 1006 29.71 835 24.66 4.5 40.1 37 -9 15.7
23:35 1006 29.71 835 24.66 4.5 40.1 36 -9.3 15.3
23:40 1006 29.71 835 24.66 4.6 40.2 37 -9 15.9
23:45 1006 29.71 835 24.66 4.6 40.4 37 -8.8 16.2
23:50 1006 29.71 835 24.66 4.6 40.2 38 -8.6 16.5
23:55 1007 29.74 836 24.69 4.6 40.3 48 -5.5 22.1
24:00 1007 29.74 836 24.69 3.1 37.6 69 -2 28.4